createdAt,value
2023-01-03T00:01:38.053Z,3.40
2023-01-03T00:04:05.439Z,3.40
2023-01-03T00:06:41.187Z,3.20
2023-01-03T00:09:09.900Z,3.10
2023-01-03T00:11:56.220Z,3.30
2023-01-03T00:14:25.548Z,3.20
2023-01-03T00:16:54.339Z,3.30
2023-01-03T00:19:21.928Z,3.10
2023-01-03T00:21:49.013Z,3.20
2023-01-03T00:24:16.424Z,3.10
2023-01-03T00:26:43.654Z,3.10
2023-01-03T00:29:11.903Z,3.00
2023-01-03T00:31:39.511Z,3.10
2023-01-03T00:34:06.958Z,3.10
2023-01-03T00:36:34.720Z,3.20
2023-01-03T00:39:01.832Z,3.20
2023-01-03T00:41:30.109Z,3.20
2023-01-03T00:43:57.313Z,3.20
2023-01-03T00:46:24.823Z,3.10
2023-01-03T00:48:52.123Z,3.20
2023-01-03T00:51:21.481Z,3.20
2023-01-03T00:53:49.583Z,3.20
2023-01-03T00:56:18.898Z,3.20
2023-01-03T00:58:46.435Z,3.20
2023-01-03T01:01:23.411Z,3.20
2023-01-03T01:03:53.423Z,3.20
2023-01-03T01:06:23.255Z,3.20
2023-01-03T01:08:51.099Z,3.20
2023-01-03T01:11:18.354Z,3.30
2023-01-03T01:13:46.376Z,3.30
2023-01-03T01:16:15.986Z,3.20
2023-01-03T01:18:44.292Z,3.20
2023-01-03T01:21:14.039Z,3.20
2023-01-03T01:23:41.580Z,3.30
2023-01-03T01:26:11.158Z,3.30
2023-01-03T01:28:38.464Z,3.30
2023-01-03T01:31:06.316Z,3.30
2023-01-03T01:33:35.609Z,3.30
2023-01-03T01:36:32.996Z,3.30
2023-01-03T01:39:05.325Z,3.10
2023-01-03T01:41:52.428Z,3.10
2023-01-03T01:44:58.591Z,3.00
2023-01-03T01:47:40.995Z,3.00
2023-01-03T01:50:10.741Z,3.10
2023-01-03T01:52:39.449Z,3.10
2023-01-03T01:55:08.879Z,3.10
2023-01-03T01:57:36.156Z,3.10
2023-01-03T02:00:03.834Z,3.10
2023-01-03T02:02:31.180Z,3.20
2023-01-03T02:04:58.442Z,3.10
2023-01-03T02:07:25.554Z,3.10
2023-01-03T02:09:54.862Z,3.10
2023-01-03T02:12:52.210Z,3.10
2023-01-03T02:15:40.607Z,3.10
2023-01-03T02:18:30.033Z,3.00
2023-01-03T02:21:24.979Z,3.10
2023-01-03T02:24:25.148Z,3.20
2023-01-03T02:27:12.322Z,3.10
2023-01-03T02:30:02.931Z,3.20
2023-01-03T02:32:45.360Z,3.20
2023-01-03T02:35:30.644Z,3.30
2023-01-03T02:38:49.319Z,3.40
2023-01-03T02:41:32.658Z,3.30
2023-01-03T02:44:26.103Z,3.40
2023-01-03T02:47:01.681Z,3.20
2023-01-03T02:49:37.923Z,3.30
2023-01-03T02:52:07.224Z,3.40
2023-01-03T02:55:01.445Z,3.30
2023-01-03T02:58:10.368Z,3.30
2023-01-03T03:00:41.695Z,3.30
2023-01-03T03:03:12.717Z,3.20
2023-01-03T03:06:18.032Z,3.20
2023-01-03T03:08:46.285Z,3.20
2023-01-03T03:11:32.135Z,3.20
2023-01-03T03:14:08.188Z,3.10
2023-01-03T03:16:47.963Z,3.20
2023-01-03T03:19:40.933Z,3.10
2023-01-03T03:22:31.837Z,3.10
2023-01-03T03:24:59.734Z,3.20
2023-01-03T03:27:45.529Z,3.30
2023-01-03T03:30:13.914Z,3.20
2023-01-03T03:32:41.453Z,3.30
2023-01-03T03:35:09.551Z,3.40
2023-01-03T03:37:36.658Z,3.40
2023-01-03T03:40:22.857Z,3.40
2023-01-03T03:43:14.536Z,3.30
2023-01-03T03:45:52.788Z,3.40
2023-01-03T03:48:19.910Z,3.40
2023-01-03T03:51:03.087Z,3.50
2023-01-03T03:53:32.168Z,3.40
2023-01-03T03:56:01.987Z,3.20
2023-01-03T03:58:41.007Z,3.20
2023-01-03T04:01:08.674Z,3.20
2023-01-03T04:03:35.965Z,3.20
2023-01-03T04:06:06.789Z,3.40
2023-01-03T04:08:33.910Z,3.30
2023-01-03T04:11:07.313Z,3.30
2023-01-03T04:13:35.649Z,3.30
2023-01-03T04:16:03.100Z,3.30
2023-01-03T04:18:30.464Z,3.40
2023-01-03T04:20:57.684Z,3.40
2023-01-03T04:23:25.207Z,3.30
2023-01-03T04:25:52.753Z,3.30
2023-01-03T04:28:22.679Z,3.30
2023-01-03T04:30:49.865Z,3.30
2023-01-03T04:33:17.165Z,3.40
2023-01-03T04:35:44.438Z,3.50
2023-01-03T04:38:11.557Z,3.50
2023-01-03T04:40:41.598Z,3.60
2023-01-03T04:43:28.261Z,3.50
2023-01-03T04:45:55.591Z,3.50
2023-01-03T04:48:22.880Z,3.50
2023-01-03T04:50:57.837Z,3.50
2023-01-03T04:53:25.688Z,3.60
2023-01-03T04:55:53.467Z,3.70
2023-01-03T04:58:20.885Z,3.70
2023-01-03T05:00:48.178Z,3.60
2023-01-03T05:03:15.197Z,3.60
2023-01-03T05:05:42.519Z,3.70
2023-01-03T05:08:12.047Z,3.70
2023-01-03T05:10:39.431Z,3.80
2023-01-03T05:13:06.718Z,3.80
2023-01-03T05:15:37.212Z,3.80
2023-01-03T05:18:04.714Z,3.70
2023-01-03T05:20:50.333Z,3.80
2023-01-03T05:23:36.580Z,3.80
2023-01-03T05:26:09.699Z,3.90
2023-01-03T05:28:36.985Z,3.90
2023-01-03T05:31:04.258Z,4.00
2023-01-03T05:33:31.571Z,4.00
2023-01-03T05:36:00.139Z,4.00
2023-01-03T05:38:27.404Z,4.00
2023-01-03T05:40:54.626Z,4.00
2023-01-03T05:43:21.783Z,4.00
2023-01-03T05:45:52.258Z,4.00
2023-01-03T05:48:20.547Z,4.10
2023-01-03T05:50:47.740Z,4.20
2023-01-03T05:53:14.932Z,4.20
2023-01-03T05:55:42.128Z,4.20
2023-01-03T05:58:10.931Z,4.10
2023-01-03T06:00:37.850Z,4.10
2023-01-03T06:03:05.120Z,4.00
2023-01-03T06:05:32.400Z,4.10
2023-01-03T06:08:02.842Z,4.10
2023-01-03T06:10:30.165Z,4.20
2023-01-03T06:12:57.558Z,4.10
2023-01-03T06:15:24.511Z,4.20
2023-01-03T06:18:02.764Z,4.20
2023-01-03T06:20:37.652Z,4.20
2023-01-03T06:23:04.918Z,4.30
2023-01-03T06:25:32.132Z,4.30
2023-01-03T06:27:59.528Z,4.30
2023-01-03T06:30:26.875Z,4.40
2023-01-03T06:32:54.045Z,4.40
2023-01-03T06:35:21.327Z,4.50
2023-01-03T06:37:48.718Z,4.50
2023-01-03T06:40:15.951Z,4.40
2023-01-03T06:42:43.702Z,4.50
2023-01-03T06:45:30.592Z,4.50
2023-01-03T06:48:16.219Z,4.50
2023-01-03T06:51:01.970Z,4.50
2023-01-03T06:53:33.217Z,4.50
2023-01-03T06:56:00.511Z,4.50
2023-01-03T06:58:27.898Z,4.50
2023-01-03T07:00:55.495Z,4.50
2023-01-03T07:03:22.950Z,4.50
2023-01-03T07:05:50.329Z,4.50
2023-01-03T07:08:17.736Z,4.50
2023-01-03T07:10:44.881Z,4.70
2023-01-03T07:13:30.502Z,4.70
2023-01-03T07:15:58.045Z,4.70
2023-01-03T07:18:26.430Z,4.70
2023-01-03T07:20:53.696Z,4.70
2023-01-03T07:23:21.218Z,4.70
2023-01-03T07:25:48.829Z,4.70
2023-01-03T07:28:16.856Z,4.80
2023-01-03T07:30:45.266Z,4.80
2023-01-03T07:33:13.677Z,4.90
2023-01-03T07:35:41.269Z,4.90
2023-01-03T07:38:08.533Z,4.80
2023-01-03T07:40:35.760Z,4.80
2023-01-03T07:43:21.501Z,4.90
2023-01-03T07:45:48.891Z,4.80
2023-01-03T07:48:15.879Z,4.80
2023-01-03T07:50:42.990Z,4.90
2023-01-03T07:53:10.142Z,4.90
2023-01-03T07:55:37.627Z,4.90
2023-01-03T07:58:04.799Z,4.90
2023-01-03T08:00:31.803Z,5.00
2023-01-03T08:02:59.093Z,5.00
2023-01-03T08:05:26.210Z,5.00
2023-01-03T08:07:53.421Z,5.00
2023-01-03T08:10:39.187Z,5.10
2023-01-03T08:13:26.581Z,5.10
2023-01-03T08:15:56.991Z,5.10
2023-01-03T08:18:27.945Z,5.10
2023-01-03T08:20:56.767Z,5.10
2023-01-03T08:23:24.292Z,5.10
2023-01-03T08:25:51.515Z,5.20
2023-01-03T08:28:18.591Z,5.20
2023-01-03T08:30:49.707Z,5.30
2023-01-03T08:33:17.753Z,5.30
2023-01-03T08:35:47.935Z,5.30
2023-01-03T08:38:16.955Z,5.40
2023-01-03T08:40:44.238Z,5.40
2023-01-03T08:43:11.271Z,5.50
2023-01-03T08:45:38.823Z,5.60
2023-01-03T08:48:06.826Z,5.60
2023-01-03T08:50:34.039Z,5.60
2023-01-03T08:53:01.456Z,5.70
2023-01-03T08:55:28.836Z,5.70
2023-01-03T08:57:56.622Z,5.60
2023-01-03T09:00:23.647Z,5.70
2023-01-03T09:02:50.904Z,5.70
2023-01-03T09:05:18.278Z,5.70
2023-01-03T09:07:45.894Z,5.80
2023-01-03T09:10:12.977Z,5.80
2023-01-03T09:12:39.988Z,5.80
2023-01-03T09:15:07.532Z,5.90
2023-01-03T09:17:34.807Z,5.90
2023-01-03T09:20:01.811Z,6.00
2023-01-03T09:22:28.783Z,6.10
2023-01-03T09:24:55.956Z,6.10
2023-01-03T09:27:23.316Z,6.00
2023-01-03T09:29:50.297Z,6.00
2023-01-03T09:32:17.523Z,6.10
2023-01-03T09:34:44.829Z,6.10
2023-01-03T09:37:11.979Z,6.10
2023-01-03T09:39:40.854Z,6.20
2023-01-03T09:42:45.189Z,6.20
2023-01-03T09:45:18.278Z,6.30
2023-01-03T09:47:45.554Z,6.40
2023-01-03T09:50:57.252Z,6.30
2023-01-03T09:53:34.034Z,6.40
2023-01-03T09:56:19.608Z,6.50
2023-01-03T09:59:18.298Z,6.50
2023-01-03T10:02:25.589Z,6.50
2023-01-03T10:04:55.505Z,6.60
2023-01-03T10:07:43.579Z,6.60
2023-01-03T10:10:14.628Z,6.60
2023-01-03T10:13:12.441Z,6.60
2023-01-03T10:16:06.729Z,6.60
2023-01-03T10:18:49.022Z,6.70
2023-01-03T10:21:45.806Z,6.70
2023-01-03T10:24:28.350Z,6.80
2023-01-03T10:27:07.932Z,6.90
2023-01-03T10:29:35.132Z,6.90
2023-01-03T10:32:19.105Z,7.00
2023-01-03T10:34:48.809Z,6.90
2023-01-03T10:37:19.510Z,6.90
2023-01-03T10:39:46.434Z,6.90
2023-01-03T10:42:18.510Z,6.90
2023-01-03T10:45:21.890Z,7.00
2023-01-03T10:47:59.588Z,7.00
2023-01-03T10:50:26.912Z,7.00
2023-01-03T10:52:58.808Z,7.10
2023-01-03T10:55:26.614Z,7.20
2023-01-03T10:57:53.749Z,7.20
2023-01-03T11:00:21.297Z,7.20
2023-01-03T11:02:48.430Z,7.30
2023-01-03T11:05:21.064Z,7.30
2023-01-03T11:07:55.532Z,7.40
2023-01-03T11:10:23.372Z,7.40
2023-01-03T11:12:50.501Z,7.40
2023-01-03T11:15:38.221Z,7.40
2023-01-03T11:18:08.056Z,7.50
2023-01-03T11:21:16.265Z,7.50
2023-01-03T11:24:04.649Z,7.60
2023-01-03T11:26:34.291Z,7.60
2023-01-03T11:29:38.080Z,7.60
2023-01-03T11:32:35.153Z,7.60
2023-01-03T11:35:23.483Z,7.60
2023-01-03T11:38:00.629Z,7.60
2023-01-03T11:40:58.622Z,7.70
2023-01-03T11:43:51.349Z,7.70
2023-01-03T11:46:21.496Z,7.80
2023-01-03T11:49:03.723Z,7.80
2023-01-03T11:51:41.762Z,7.80
2023-01-03T11:54:29.048Z,7.90
2023-01-03T11:56:56.424Z,7.90
2023-01-03T11:59:41.968Z,7.90
2023-01-03T12:02:35.612Z,7.90
2023-01-03T12:05:30.611Z,8.00
2023-01-03T12:08:12.813Z,8.00
2023-01-03T12:10:58.622Z,8.10
2023-01-03T12:13:49.586Z,8.10
2023-01-03T12:16:17.494Z,8.20
2023-01-03T12:19:11.696Z,8.10
2023-01-03T12:21:48.180Z,8.10
2023-01-03T12:24:30.158Z,8.20
2023-01-03T12:27:17.280Z,8.10
2023-01-03T12:29:56.108Z,8.10
2023-01-03T12:32:35.149Z,8.20
2023-01-03T12:35:19.121Z,8.10
2023-01-03T12:37:46.224Z,8.20
2023-01-03T12:40:45.924Z,8.10
2023-01-03T12:43:33.322Z,8.10
2023-01-03T12:46:12.065Z,8.10
2023-01-03T12:48:49.891Z,8.00
2023-01-03T12:51:20.005Z,8.00
2023-01-03T12:54:06.425Z,8.00
2023-01-03T12:56:55.629Z,8.00
2023-01-03T12:59:47.274Z,8.00
2023-01-03T13:02:22.774Z,8.00
2023-01-03T13:04:55.126Z,8.00
2023-01-03T13:07:31.998Z,8.00
2023-01-03T13:10:07.393Z,8.10
2023-01-03T13:12:37.291Z,8.00
2023-01-03T13:15:15.185Z,8.10
2023-01-03T13:17:44.057Z,8.00
2023-01-03T13:20:29.796Z,8.00
2023-01-03T13:22:57.924Z,8.10
2023-01-03T13:26:06.804Z,8.00
2023-01-03T13:28:37.988Z,7.90
2023-01-03T13:31:20.144Z,8.00
2023-01-03T13:34:14.457Z,8.10
2023-01-03T13:37:07.716Z,8.00
2023-01-03T13:39:45.103Z,7.90
2023-01-03T13:42:38.918Z,7.90
2023-01-03T13:45:23.928Z,7.80
2023-01-03T13:47:54.607Z,7.70
2023-01-03T13:50:23.563Z,7.80
2023-01-03T13:52:58.829Z,7.80
2023-01-03T13:55:57.121Z,7.80
2023-01-03T13:58:51.858Z,7.80
2023-01-03T14:01:22.103Z,7.70
2023-01-03T14:04:16.040Z,7.80
2023-01-03T14:07:02.014Z,7.60
2023-01-03T14:09:36.237Z,7.50
2023-01-03T14:12:21.402Z,7.50
2023-01-03T14:14:56.109Z,7.60
2023-01-03T14:17:30.090Z,7.60
2023-01-03T14:20:06.285Z,7.60
2023-01-03T14:22:41.255Z,7.50
2023-01-03T14:25:09.045Z,7.50
2023-01-03T14:27:38.071Z,7.50
2023-01-03T14:30:05.720Z,7.50
2023-01-03T14:32:35.299Z,7.50
2023-01-03T14:35:03.096Z,7.50
2023-01-03T14:37:33.141Z,7.50
2023-01-03T14:40:02.057Z,7.40
2023-01-03T14:42:29.174Z,7.30
2023-01-03T14:44:57.290Z,7.40
2023-01-03T14:47:40.759Z,7.30
2023-01-03T14:50:28.588Z,7.40
2023-01-03T14:53:00.557Z,7.40
2023-01-03T14:55:29.261Z,7.40
2023-01-03T14:57:56.455Z,7.30
2023-01-03T15:00:32.588Z,7.30
2023-01-03T15:03:00.766Z,7.30
2023-01-03T15:05:29.423Z,7.30
2023-01-03T15:08:24.620Z,7.20
2023-01-03T15:11:04.256Z,7.30
2023-01-03T15:13:34.238Z,7.20
2023-01-03T15:16:05.815Z,7.10
2023-01-03T15:18:37.249Z,7.20
2023-01-03T15:21:04.693Z,7.10
2023-01-03T15:23:47.703Z,7.10
2023-01-03T15:26:37.924Z,7.10
2023-01-03T15:29:15.024Z,7.00
2023-01-03T15:31:59.029Z,6.90
2023-01-03T15:34:29.488Z,7.00
2023-01-03T15:37:15.349Z,6.90
2023-01-03T15:39:47.277Z,6.90
2023-01-03T15:42:45.850Z,7.00
2023-01-03T15:45:28.137Z,7.10
2023-01-03T15:47:57.787Z,7.00
2023-01-03T15:50:25.740Z,7.00
2023-01-03T15:52:53.053Z,7.00
2023-01-03T15:55:20.189Z,7.10
2023-01-03T15:57:51.560Z,7.00
2023-01-03T16:00:20.718Z,6.90
2023-01-03T16:02:48.208Z,7.00
2023-01-03T16:05:21.528Z,7.10
2023-01-03T16:07:49.107Z,7.00
2023-01-03T16:10:16.456Z,7.00
2023-01-03T16:12:43.780Z,7.00
2023-01-03T16:15:22.141Z,6.90
2023-01-03T16:17:50.203Z,7.00
2023-01-03T16:20:17.981Z,7.00
2023-01-03T16:22:58.061Z,6.90
2023-01-03T16:25:28.065Z,7.00
2023-01-03T16:27:55.285Z,7.00
2023-01-03T16:30:24.475Z,6.90
2023-01-03T16:32:51.936Z,6.90
2023-01-03T16:35:19.665Z,6.90
2023-01-03T16:37:46.971Z,6.90
2023-01-03T16:40:16.819Z,6.90
2023-01-03T16:42:44.052Z,6.90
2023-01-03T16:45:11.547Z,6.80
2023-01-03T16:47:38.832Z,6.80
2023-01-03T16:50:16.852Z,6.80
2023-01-03T16:52:45.364Z,6.80
2023-01-03T16:55:18.152Z,6.80
2023-01-03T16:57:50.186Z,6.80
2023-01-03T17:00:22.625Z,6.80
2023-01-03T17:02:49.707Z,6.80
2023-01-03T17:05:17.176Z,6.70
2023-01-03T17:07:45.565Z,6.60
2023-01-03T17:10:33.193Z,6.60
2023-01-03T17:13:06.853Z,6.60
2023-01-03T17:15:37.475Z,6.60
2023-01-03T17:18:04.815Z,6.50
2023-01-03T17:20:32.397Z,6.50
2023-01-03T17:23:00.655Z,6.50
2023-01-03T17:25:27.701Z,6.50
2023-01-03T17:27:59.082Z,6.50
2023-01-03T17:30:27.330Z,6.50
2023-01-03T17:32:55.365Z,6.10
2023-01-03T17:35:22.625Z,6.40
2023-01-03T17:38:24.179Z,6.50
2023-01-03T17:40:36.657Z,6.50
2023-01-03T17:43:03.912Z,6.40
2023-01-03T17:45:49.656Z,6.40
2023-01-03T17:48:35.429Z,6.40
2023-01-03T17:51:03.105Z,6.40
2023-01-03T17:53:30.074Z,6.40
2023-01-03T17:55:57.216Z,6.20
2023-01-03T17:58:32.256Z,6.10
2023-01-03T18:00:59.367Z,6.00
2023-01-03T18:03:26.647Z,6.00
2023-01-03T18:05:53.934Z,6.00
2023-01-03T18:08:21.946Z,5.80
2023-01-03T18:10:49.391Z,5.70
2023-01-03T18:13:26.986Z,5.60
2023-01-03T18:15:54.382Z,5.50
2023-01-03T18:18:22.853Z,5.50
2023-01-03T18:20:50.103Z,5.40
2023-01-03T18:23:29.093Z,5.40
2023-01-03T18:25:57.373Z,5.40
2023-01-03T18:28:25.860Z,5.30
2023-01-03T18:30:53.828Z,5.30
2023-01-03T18:33:20.851Z,5.20
2023-01-03T18:35:48.131Z,5.20
2023-01-03T18:38:29.327Z,5.20
2023-01-03T18:41:02.549Z,5.10
2023-01-03T18:43:31.488Z,5.10
2023-01-03T18:45:58.956Z,5.20
2023-01-03T18:48:25.985Z,5.10
2023-01-03T18:50:58.537Z,5.10
2023-01-03T18:53:28.547Z,5.10
2023-01-03T18:55:56.370Z,5.10
2023-01-03T18:58:35.608Z,5.20
2023-01-03T19:01:02.837Z,5.20
2023-01-03T19:03:31.226Z,5.30
2023-01-03T19:05:59.204Z,5.30
2023-01-03T19:08:27.419Z,5.30
2023-01-03T19:10:54.504Z,5.20
2023-01-03T19:13:29.577Z,5.20
2023-01-03T19:15:56.844Z,5.30
2023-01-03T19:18:23.941Z,5.20
2023-01-03T19:20:51.139Z,5.10
2023-01-03T19:23:20.697Z,5.10
2023-01-03T19:25:47.719Z,5.10
2023-01-03T19:28:14.935Z,4.90
2023-01-03T19:30:44.492Z,4.80
2023-01-03T19:33:13.055Z,4.80
2023-01-03T19:35:40.385Z,4.70
2023-01-03T19:38:09.849Z,4.60
2023-01-03T19:40:38.250Z,4.50
2023-01-03T19:43:05.388Z,4.40
2023-01-03T19:45:36.881Z,4.30
2023-01-03T19:48:18.165Z,4.20
2023-01-03T19:50:45.642Z,4.30
2023-01-03T19:53:12.835Z,4.20
2023-01-03T19:55:41.770Z,4.00
2023-01-03T19:58:18.309Z,3.90
2023-01-03T20:00:46.765Z,3.90
2023-01-03T20:03:31.213Z,3.90
2023-01-03T20:05:58.574Z,3.70
2023-01-03T20:08:25.577Z,3.70
2023-01-03T20:10:52.933Z,3.60
2023-01-03T20:13:24.555Z,3.70
2023-01-03T20:15:58.139Z,3.60
2023-01-03T20:18:34.215Z,3.60
2023-01-03T20:21:21.687Z,3.50
2023-01-03T20:23:54.665Z,3.40
2023-01-03T20:26:25.615Z,3.30
2023-01-03T20:28:55.224Z,3.30
2023-01-03T20:31:22.383Z,3.10
2023-01-03T20:33:49.705Z,3.10
2023-01-03T20:36:23.030Z,3.00
2023-01-03T20:38:52.497Z,3.00
2023-01-03T20:41:19.517Z,3.00
2023-01-03T20:43:47.658Z,3.00
2023-01-03T20:46:21.692Z,3.00
2023-01-03T20:48:56.742Z,2.90
2023-01-03T20:51:26.886Z,3.00
2023-01-03T20:53:54.998Z,2.80
2023-01-03T20:56:23.107Z,2.80
2023-01-03T20:58:50.234Z,2.80
2023-01-03T21:01:17.549Z,2.70
2023-01-03T21:03:44.802Z,2.60
2023-01-03T21:06:19.786Z,2.60
2023-01-03T21:08:55.999Z,2.50
2023-01-03T21:11:24.813Z,2.30
2023-01-03T21:13:51.869Z,2.30
2023-01-03T21:16:44.388Z,2.30
2023-01-03T21:19:16.183Z,2.30
2023-01-03T21:21:45.611Z,2.30
2023-01-03T21:24:13.260Z,2.30
2023-01-03T21:26:40.714Z,2.20
2023-01-03T21:29:08.117Z,2.30
2023-01-03T21:31:35.627Z,2.20
2023-01-03T21:34:04.358Z,2.20
2023-01-03T21:36:32.662Z,2.10
2023-01-03T21:39:00.111Z,2.10
2023-01-03T21:41:29.279Z,2.10
2023-01-03T21:43:57.552Z,2.10
2023-01-03T21:46:25.531Z,2.20
2023-01-03T21:48:53.367Z,2.10
2023-01-03T21:51:33.142Z,1.90
2023-01-03T21:54:06.536Z,1.80
2023-01-03T21:56:33.998Z,1.80
2023-01-03T21:59:01.100Z,1.80
2023-01-03T22:01:28.423Z,1.90
2023-01-03T22:04:14.367Z,1.90
2023-01-03T22:06:41.641Z,1.80
2023-01-03T22:09:28.676Z,1.80
2023-01-03T22:11:55.898Z,1.80
2023-01-03T22:14:23.091Z,1.60
2023-01-03T22:16:50.512Z,1.60
2023-01-03T22:19:17.892Z,1.50
2023-01-03T22:21:44.993Z,1.50
2023-01-03T22:24:12.119Z,1.40
2023-01-03T22:26:39.464Z,1.40
2023-01-03T22:29:06.907Z,1.60
2023-01-03T22:31:34.053Z,1.60
2023-01-03T22:34:02.891Z,1.60
2023-01-03T22:36:30.202Z,1.60
2023-01-03T22:38:57.441Z,1.40
2023-01-03T22:41:24.741Z,1.30
2023-01-03T22:43:52.526Z,1.40
2023-01-03T22:46:21.331Z,1.50
2023-01-03T22:48:48.596Z,1.30
2023-01-03T22:51:16.046Z,1.40
2023-01-03T22:53:44.292Z,1.20
2023-01-03T22:56:15.225Z,1.30
2023-01-03T22:58:42.606Z,1.50
2023-01-03T23:01:12.225Z,1.60
2023-01-03T23:03:39.824Z,1.50
2023-01-03T23:06:11.523Z,1.30
2023-01-03T23:08:38.752Z,1.20
2023-01-03T23:11:31.612Z,1.20
2023-01-03T23:14:02.034Z,1.10
2023-01-03T23:16:29.420Z,1.10
2023-01-03T23:18:56.605Z,1.20
2023-01-03T23:21:24.044Z,1.20
2023-01-03T23:23:51.313Z,1.10
2023-01-03T23:26:18.878Z,1.10
2023-01-03T23:28:46.079Z,1.10
2023-01-03T23:31:13.253Z,1.00
2023-01-03T23:33:40.567Z,1.00
2023-01-03T23:36:08.793Z,0.90
2023-01-03T23:38:35.998Z,1.10
2023-01-03T23:41:07.164Z,1.20
2023-01-03T23:43:34.741Z,1.10
2023-01-03T23:46:02.020Z,1.00
2023-01-03T23:48:29.280Z,0.90
2023-01-03T23:51:07.048Z,1.00
2023-01-03T23:53:38.655Z,1.10
2023-01-03T23:56:10.143Z,0.90
2023-01-03T23:58:37.380Z,1.00
